Main page
METAR-TAF:

METAR-TAF

Airports :

Porto Airport

Porto, Portugal

latitude: 41-14N, longitude: 008-41W, elevation: 69 m

Current weather observation

The report was made 29 minutes ago, at 14:00 UTC
Wind 9 kt from the East/Southeast
Temperature 21°C
Humidity 56%
Pressure 1017 hPa
Visibility 10 km or more
no clouds below 1500 m and no cumulonimbus

METAR: LPPR 141400Z 12009KT CAVOK 21/12 Q1017

Time: 14:29 (14:29 UTC)

Forecast

The report was made 3 hours and 29 minutes ago, at 11:00 UTC
Forecast valid from 14 at 12 UTC to 15 at 12 UTC
Wind 10 kt from the East/Southeast
Visibility 10 km or more
no clouds below 1500 m and no cumulonimbus
Becoming
from 14 at 13 UTC to 14 at 15 UTC
Wind 3 kt from variable directions
Becoming
from 14 at 20 UTC to 14 at 22 UTC
Wind 10 kt from the East/Southeast

TAF: LPPR 141100Z 1412/1512 12010KT CAVOK BECMG 1413/1415 VRB03KT BECMG 1420/1422 11010KT

Weather observations and forecasts of more than 4000 airports (METAR and TAF reports).

The available stations are represented by yellow and red dots on the map.

Hover mouse over dot to see the name of the station.

Then click to see weather observations and forecasts.

To change the map : click on the green buttons with a black cross to zoom in, on the green button with a dash to zoom out, or on the green arrows for adjacent maps.


METAR-TAF: